Eprise, Alabama
Current Conditions -  °F | °C
As of 5:56 AM on Sunday 25 Jan 2015 (Local Time) from KSXS Reporting Station
Clear Clear  
Wind Chill: 32°   Ceiling: Unl
Heat Index: 32°   Visibility: 10mi
Dew Point: 31°   Wind: 3mph
Humidity: 95%   Direction: 190°S
Pressure: 30.05"   Gusts: NA
Location:  31.3153°N, 85.8554°W
Report Text: KSXS 251156Z AUTO 19003KT 10SM CLR 00/M01 A3005 RMK AO2 SLP180 70013 T00011006 10048 21001 58005
Loading
Personal Weather Stations






























Interactive Weather Map New forecast layout! Learn more

10-Day Weather Forecast

Advertisements
Track Severe Weather on mobile